Junius, South Dakota
Current Conditions -  °F | °C
As of 10:15 AM on Thursday 23 Oct 2014 (Local Time) from KMDS Reporting Station
Clear Clear  
Wind Chill: 11°   Ceiling: Unl
Heat Index: 11°   Visibility: 10mi
Dew Point: 10°   Wind: 3mph
Humidity: 94%   Direction: 250°WSW
Pressure: 30.03"   Gusts: NA
Location:  43.9866°N, 97.1364°W
Report Text: KMDS 231515Z AUTO 25003KT 10SM CLR 11/10 A3003 RMK AO2
Loading
Personal Weather Stations






























Interactive Weather Map
Tropical Storm Tracking
New forecast layout! Learn more

10-Day Weather Forecast

Advertisements
Track Severe Weather on mobile